sensor_id;sensor_type;location;lat;lon;timestamp;P1;durP1;ratioP1;P2;durP2;ratioP2
56363;SDS011;42261;52.094;4.326;2022-12-18T00:02:15;55.92;;;22.15;;
56363;SDS011;42261;52.094;4.326;2022-12-18T00:04:59;61.40;;;20.20;;
56363;SDS011;42261;52.094;4.326;2022-12-18T00:07:44;62.17;;;20.50;;
56363;SDS011;42261;52.094;4.326;2022-12-18T00:10:29;50.17;;;21.33;;
56363;SDS011;42261;52.094;4.326;2022-12-18T00:13:13;63.00;;;20.63;;
56363;SDS011;42261;52.094;4.326;2022-12-18T00:16:05;48.92;;;19.23;;
56363;SDS011;42261;52.094;4.326;2022-12-18T00:18:52;50.60;;;21.08;;
56363;SDS011;42261;52.094;4.326;2022-12-18T00:21:38;70.18;;;21.08;;
56363;SDS011;42261;52.094;4.326;2022-12-18T00:24:22;61.60;;;21.83;;
56363;SDS011;42261;52.094;4.326;2022-12-18T00:27:08;52.53;;;20.05;;
56363;SDS011;42261;52.094;4.326;2022-12-18T00:29:52;61.10;;;20.85;;
56363;SDS011;42261;52.094;4.326;2022-12-18T00:32:36;54.78;;;21.70;;
56363;SDS011;42261;52.094;4.326;2022-12-18T00:35:22;46.40;;;17.92;;
56363;SDS011;42261;52.094;4.326;2022-12-18T00:38:10;49.88;;;19.80;;
56363;SDS011;42261;52.094;4.326;2022-12-18T00:41:00;56.10;;;21.40;;
56363;SDS011;42261;52.094;4.326;2022-12-18T00:43:47;53.13;;;20.85;;
56363;SDS011;42261;52.094;4.326;2022-12-18T00:46:31;58.95;;;21.48;;
56363;SDS011;42261;52.094;4.326;2022-12-18T00:49:17;54.85;;;21.20;;
56363;SDS011;42261;52.094;4.326;2022-12-18T00:52:23;46.15;;;18.50;;
56363;SDS011;42261;52.094;4.326;2022-12-18T00:55:26;45.75;;;19.98;;
56363;SDS011;42261;52.094;4.326;2022-12-18T00:58:14;54.47;;;21.70;;
56363;SDS011;42261;52.094;4.326;2022-12-18T01:00:59;62.65;;;21.35;;
56363;SDS011;42261;52.094;4.326;2022-12-18T01:03:43;51.67;;;20.10;;
56363;SDS011;42261;52.094;4.326;2022-12-18T01:06:29;55.63;;;21.42;;
56363;SDS011;42261;52.094;4.326;2022-12-18T01:09:13;59.22;;;22.02;;
56363;SDS011;42261;52.094;4.326;2022-12-18T01:11:57;62.40;;;21.77;;
56363;SDS011;42261;52.094;4.326;2022-12-18T01:14:42;58.80;;;20.95;;
56363;SDS011;42261;52.094;4.326;2022-12-18T01:17:26;51.25;;;20.63;;
56363;SDS011;42261;52.094;4.326;2022-12-18T01:20:12;54.30;;;20.90;;
56363;SDS011;42261;52.094;4.326;2022-12-18T01:22:56;50.70;;;20.13;;
56363;SDS011;42261;52.094;4.326;2022-12-18T01:25:41;60.95;;;20.27;;
56363;SDS011;42261;52.094;4.326;2022-12-18T01:28:25;51.15;;;20.60;;
56363;SDS011;42261;52.094;4.326;2022-12-18T01:31:20;53.85;;;19.92;;
56363;SDS011;42261;52.094;4.326;2022-12-18T01:34:06;50.88;;;18.52;;
56363;SDS011;42261;52.094;4.326;2022-12-18T01:36:51;48.13;;;19.40;;
56363;SDS011;42261;52.094;4.326;2022-12-18T01:39:35;52.60;;;19.92;;
56363;SDS011;42261;52.094;4.326;2022-12-18T01:42:20;53.08;;;20.05;;
56363;SDS011;42261;52.094;4.326;2022-12-18T01:48:00;59.00;;;19.02;;
56363;SDS011;42261;52.094;4.326;2022-12-18T01:50:46;49.38;;;19.35;;
56363;SDS011;42261;52.094;4.326;2022-12-18T01:53:31;54.78;;;18.92;;
56363;SDS011;42261;52.094;4.326;2022-12-18T01:56:17;49.65;;;16.88;;
56363;SDS011;42261;52.094;4.326;2022-12-18T01:59:04;44.53;;;20.70;;
56363;SDS011;42261;52.094;4.326;2022-12-18T02:01:50;49.50;;;18.08;;
56363;SDS011;42261;52.094;4.326;2022-12-18T02:04:34;54.83;;;19.33;;
56363;SDS011;42261;52.094;4.326;2022-12-18T02:07:31;47.30;;;18.35;;
56363;SDS011;42261;52.094;4.326;2022-12-18T02:10:35;58.30;;;19.75;;
56363;SDS011;42261;52.094;4.326;2022-12-18T02:16:30;50.28;;;18.85;;
56363;SDS011;42261;52.094;4.326;2022-12-18T02:28:36;49.03;;;18.13;;
56363;SDS011;42261;52.094;4.326;2022-12-18T02:31:27;44.28;;;17.55;;
56363;SDS011;42261;52.094;4.326;2022-12-18T02:34:14;63.85;;;20.48;;
56363;SDS011;42261;52.094;4.326;2022-12-18T02:36:59;49.40;;;19.33;;
56363;SDS011;42261;52.094;4.326;2022-12-18T02:39:46;48.38;;;20.48;;
56363;SDS011;42261;52.094;4.326;2022-12-18T02:42:31;51.55;;;19.23;;
56363;SDS011;42261;52.094;4.326;2022-12-18T02:45:16;53.10;;;18.95;;
56363;SDS011;42261;52.094;4.326;2022-12-18T02:48:01;49.92;;;17.77;;
56363;SDS011;42261;52.094;4.326;2022-12-18T02:50:45;49.60;;;18.08;;
56363;SDS011;42261;52.094;4.326;2022-12-18T02:53:36;54.25;;;16.83;;
56363;SDS011;42261;52.094;4.326;2022-12-18T02:56:29;45.58;;;18.33;;
56363;SDS011;42261;52.094;4.326;2022-12-18T02:59:21;56.97;;;18.65;;
56363;SDS011;42261;52.094;4.326;2022-12-18T03:02:32;50.75;;;17.35;;
56363;SDS011;42261;52.094;4.326;2022-12-18T03:05:25;47.58;;;18.73;;
56363;SDS011;42261;52.094;4.326;2022-12-18T03:08:24;48.75;;;18.30;;
56363;SDS011;42261;52.094;4.326;2022-12-18T03:11:11;48.83;;;17.85;;
56363;SDS011;42261;52.094;4.326;2022-12-18T03:13:57;44.13;;;17.30;;
56363;SDS011;42261;52.094;4.326;2022-12-18T03:16:42;48.08;;;17.02;;
56363;SDS011;42261;52.094;4.326;2022-12-18T03:19:28;50.72;;;18.65;;
56363;SDS011;42261;52.094;4.326;2022-12-18T03:22:13;52.67;;;18.00;;
56363;SDS011;42261;52.094;4.326;2022-12-18T03:24:59;43.85;;;17.02;;
56363;SDS011;42261;52.094;4.326;2022-12-18T03:27:46;48.33;;;17.98;;
56363;SDS011;42261;52.094;4.326;2022-12-18T03:30:34;42.50;;;15.68;;
56363;SDS011;42261;52.094;4.326;2022-12-18T03:33:21;42.75;;;17.85;;
56363;SDS011;42261;52.094;4.326;2022-12-18T03:36:10;44.97;;;16.52;;
56363;SDS011;42261;52.094;4.326;2022-12-18T03:38:55;48.75;;;18.17;;
56363;SDS011;42261;52.094;4.326;2022-12-18T03:47:29;44.83;;;17.33;;
56363;SDS011;42261;52.094;4.326;2022-12-18T03:50:22;41.35;;;18.05;;
56363;SDS011;42261;52.094;4.326;2022-12-18T03:53:14;44.22;;;17.08;;
56363;SDS011;42261;52.094;4.326;2022-12-18T03:56:03;44.20;;;17.13;;
56363;SDS011;42261;52.094;4.326;2022-12-18T03:58:50;41.88;;;17.60;;
56363;SDS011;42261;52.094;4.326;2022-12-18T04:01:35;41.72;;;15.23;;
56363;SDS011;42261;52.094;4.326;2022-12-18T04:04:23;35.33;;;15.30;;
56363;SDS011;42261;52.094;4.326;2022-12-18T04:07:08;40.38;;;15.23;;
56363;SDS011;42261;52.094;4.326;2022-12-18T04:09:53;35.33;;;14.75;;
56363;SDS011;42261;52.094;4.326;2022-12-18T04:12:40;36.90;;;14.35;;
56363;SDS011;42261;52.094;4.326;2022-12-18T04:15:26;37.30;;;14.88;;
56363;SDS011;42261;52.094;4.326;2022-12-18T04:18:10;39.40;;;13.73;;
56363;SDS011;42261;52.094;4.326;2022-12-18T04:20:54;37.55;;;13.75;;
56363;SDS011;42261;52.094;4.326;2022-12-18T04:23:39;34.88;;;14.73;;
56363;SDS011;42261;52.094;4.326;2022-12-18T04:26:23;40.92;;;14.85;;
56363;SDS011;42261;52.094;4.326;2022-12-18T04:29:07;37.63;;;14.80;;
56363;SDS011;42261;52.094;4.326;2022-12-18T04:31:51;36.28;;;15.48;;
56363;SDS011;42261;52.094;4.326;2022-12-18T04:34:36;38.05;;;15.57;;
56363;SDS011;42261;52.094;4.326;2022-12-18T04:37:21;36.55;;;15.02;;
56363;SDS011;42261;52.094;4.326;2022-12-18T04:40:05;35.65;;;14.15;;
56363;SDS011;42261;52.094;4.326;2022-12-18T04:42:50;34.25;;;14.07;;
56363;SDS011;42261;52.094;4.326;2022-12-18T04:45:34;34.53;;;14.05;;
56363;SDS011;42261;52.094;4.326;2022-12-18T04:48:19;39.50;;;14.73;;
56363;SDS011;42261;52.094;4.326;2022-12-18T04:51:04;37.55;;;14.43;;
56363;SDS011;42261;52.094;4.326;2022-12-18T04:53:49;41.88;;;14.52;;
56363;SDS011;42261;52.094;4.326;2022-12-18T04:56:34;37.28;;;14.68;;
56363;SDS011;42261;52.094;4.326;2022-12-18T04:59:18;31.58;;;13.40;;
56363;SDS011;42261;52.094;4.326;2022-12-18T05:02:02;40.13;;;14.63;;
56363;SDS011;42261;52.094;4.326;2022-12-18T05:04:46;38.45;;;15.30;;
56363;SDS011;42261;52.094;4.326;2022-12-18T05:07:31;33.67;;;13.63;;
56363;SDS011;42261;52.094;4.326;2022-12-18T05:10:17;36.15;;;14.25;;
56363;SDS011;42261;52.094;4.326;2022-12-18T05:13:01;29.73;;;13.75;;
56363;SDS011;42261;52.094;4.326;2022-12-18T05:15:50;41.55;;;15.38;;
56363;SDS011;42261;52.094;4.326;2022-12-18T05:18:35;41.20;;;14.95;;
56363;SDS011;42261;52.094;4.326;2022-12-18T05:21:19;32.47;;;15.30;;
56363;SDS011;42261;52.094;4.326;2022-12-18T05:24:04;51.80;;;14.30;;
56363;SDS011;42261;52.094;4.326;2022-12-18T05:26:48;39.95;;;14.35;;
56363;SDS011;42261;52.094;4.326;2022-12-18T05:29:32;39.72;;;15.23;;
56363;SDS011;42261;52.094;4.326;2022-12-18T05:32:16;39.00;;;13.48;;
56363;SDS011;42261;52.094;4.326;2022-12-18T05:35:01;33.80;;;14.05;;
56363;SDS011;42261;52.094;4.326;2022-12-18T05:37:45;36.78;;;15.23;;
56363;SDS011;42261;52.094;4.326;2022-12-18T05:40:29;36.17;;;13.90;;
56363;SDS011;42261;52.094;4.326;2022-12-18T05:43:13;38.80;;;14.05;;
56363;SDS011;42261;52.094;4.326;2022-12-18T05:46:02;41.88;;;14.10;;
56363;SDS011;42261;52.094;4.326;2022-12-18T05:48:50;37.90;;;15.68;;
56363;SDS011;42261;52.094;4.326;2022-12-18T05:51:35;30.52;;;12.85;;
56363;SDS011;42261;52.094;4.326;2022-12-18T05:54:19;31.20;;;13.85;;
56363;SDS011;42261;52.094;4.326;2022-12-18T05:57:04;36.20;;;13.80;;
56363;SDS011;42261;52.094;4.326;2022-12-18T05:59:48;32.85;;;12.85;;
56363;SDS011;42261;52.094;4.326;2022-12-18T06:02:33;39.45;;;13.30;;
56363;SDS011;42261;52.094;4.326;2022-12-18T06:05:17;33.78;;;13.32;;
56363;SDS011;42261;52.094;4.326;2022-12-18T06:08:03;37.55;;;14.52;;
56363;SDS011;42261;52.094;4.326;2022-12-18T06:10:51;31.33;;;12.75;;
56363;SDS011;42261;52.094;4.326;2022-12-18T06:13:36;35.28;;;13.90;;
56363;SDS011;42261;52.094;4.326;2022-12-18T06:16:23;35.92;;;13.32;;
56363;SDS011;42261;52.094;4.326;2022-12-18T06:19:12;35.88;;;13.98;;
56363;SDS011;42261;52.094;4.326;2022-12-18T06:21:58;37.22;;;15.07;;
56363;SDS011;42261;52.094;4.326;2022-12-18T06:24:43;40.40;;;14.85;;
56363;SDS011;42261;52.094;4.326;2022-12-18T06:27:27;38.30;;;14.88;;
56363;SDS011;42261;52.094;4.326;2022-12-18T06:30:11;34.88;;;13.15;;
56363;SDS011;42261;52.094;4.326;2022-12-18T06:32:56;35.42;;;14.60;;
56363;SDS011;42261;52.094;4.326;2022-12-18T06:35:40;36.17;;;13.43;;
56363;SDS011;42261;52.094;4.326;2022-12-18T06:38:24;31.50;;;13.55;;
56363;SDS011;42261;52.094;4.326;2022-12-18T06:41:13;37.60;;;13.85;;
56363;SDS011;42261;52.094;4.326;2022-12-18T06:43:58;30.45;;;12.52;;
56363;SDS011;42261;52.094;4.326;2022-12-18T06:46:42;28.75;;;12.77;;
56363;SDS011;42261;52.094;4.326;2022-12-18T06:49:27;33.45;;;10.73;;
56363;SDS011;42261;52.094;4.326;2022-12-18T06:52:11;37.83;;;14.75;;
56363;SDS011;42261;52.094;4.326;2022-12-18T06:54:56;33.78;;;14.27;;
56363;SDS011;42261;52.094;4.326;2022-12-18T06:57:41;39.70;;;13.80;;
56363;SDS011;42261;52.094;4.326;2022-12-18T07:00:25;39.55;;;13.88;;
56363;SDS011;42261;52.094;4.326;2022-12-18T07:03:12;33.83;;;13.05;;
56363;SDS011;42261;52.094;4.326;2022-12-18T07:05:56;29.45;;;12.15;;
56363;SDS011;42261;52.094;4.326;2022-12-18T07:08:40;37.83;;;13.57;;
56363;SDS011;42261;52.094;4.326;2022-12-18T07:11:24;32.60;;;13.23;;
56363;SDS011;42261;52.094;4.326;2022-12-18T07:14:08;36.05;;;12.60;;
56363;SDS011;42261;52.094;4.326;2022-12-18T07:16:52;27.40;;;11.43;;
56363;SDS011;42261;52.094;4.326;2022-12-18T07:19:36;30.00;;;12.65;;
56363;SDS011;42261;52.094;4.326;2022-12-18T07:22:21;35.17;;;11.90;;
56363;SDS011;42261;52.094;4.326;2022-12-18T07:25:05;29.30;;;11.95;;
56363;SDS011;42261;52.094;4.326;2022-12-18T07:27:51;26.20;;;11.75;;
56363;SDS011;42261;52.094;4.326;2022-12-18T07:30:36;29.92;;;11.95;;
56363;SDS011;42261;52.094;4.326;2022-12-18T07:33:25;26.90;;;13.10;;
56363;SDS011;42261;52.094;4.326;2022-12-18T07:36:10;29.33;;;12.05;;
56363;SDS011;42261;52.094;4.326;2022-12-18T07:38:54;30.17;;;13.48;;
56363;SDS011;42261;52.094;4.326;2022-12-18T07:41:39;33.03;;;12.18;;
56363;SDS011;42261;52.094;4.326;2022-12-18T07:44:29;30.20;;;13.15;;
56363;SDS011;42261;52.094;4.326;2022-12-18T07:47:14;31.80;;;12.38;;
56363;SDS011;42261;52.094;4.326;2022-12-18T07:49:58;24.30;;;10.70;;
56363;SDS011;42261;52.094;4.326;2022-12-18T07:52:42;25.33;;;11.52;;
56363;SDS011;42261;52.094;4.326;2022-12-18T07:55:27;24.60;;;9.93;;
56363;SDS011;42261;52.094;4.326;2022-12-18T07:58:11;27.60;;;10.77;;
56363;SDS011;42261;52.094;4.326;2022-12-18T08:01:07;24.27;;;11.00;;
56363;SDS011;42261;52.094;4.326;2022-12-18T08:03:52;30.17;;;11.50;;
56363;SDS011;42261;52.094;4.326;2022-12-18T08:06:37;24.85;;;10.07;;
56363;SDS011;42261;52.094;4.326;2022-12-18T08:09:21;21.25;;;9.48;;
56363;SDS011;42261;52.094;4.326;2022-12-18T08:12:05;26.10;;;10.90;;
56363;SDS011;42261;52.094;4.326;2022-12-18T08:14:49;24.73;;;9.75;;
56363;SDS011;42261;52.094;4.326;2022-12-18T08:17:34;33.47;;;12.73;;
56363;SDS011;42261;52.094;4.326;2022-12-18T08:20:18;25.65;;;10.48;;
56363;SDS011;42261;52.094;4.326;2022-12-18T08:23:02;26.15;;;9.75;;
56363;SDS011;42261;52.094;4.326;2022-12-18T08:25:46;20.20;;;8.88;;
56363;SDS011;42261;52.094;4.326;2022-12-18T08:28:31;19.15;;;8.93;;
56363;SDS011;42261;52.094;4.326;2022-12-18T08:31:15;29.10;;;11.00;;
56363;SDS011;42261;52.094;4.326;2022-12-18T08:34:00;26.77;;;9.75;;
56363;SDS011;42261;52.094;4.326;2022-12-18T08:36:44;19.67;;;9.10;;
56363;SDS011;42261;52.094;4.326;2022-12-18T08:39:29;24.80;;;9.40;;
56363;SDS011;42261;52.094;4.326;2022-12-18T08:42:13;23.80;;;9.40;;
56363;SDS011;42261;52.094;4.326;2022-12-18T08:45:16;22.77;;;9.60;;
56363;SDS011;42261;52.094;4.326;2022-12-18T08:48:03;23.63;;;9.77;;
56363;SDS011;42261;52.094;4.326;2022-12-18T08:50:57;26.65;;;10.68;;
56363;SDS011;42261;52.094;4.326;2022-12-18T08:53:43;27.00;;;10.77;;
56363;SDS011;42261;52.094;4.326;2022-12-18T08:56:28;18.38;;;8.20;;
56363;SDS011;42261;52.094;4.326;2022-12-18T08:59:13;19.02;;;8.65;;
56363;SDS011;42261;52.094;4.326;2022-12-18T09:01:58;23.25;;;10.07;;
56363;SDS011;42261;52.094;4.326;2022-12-18T09:04:42;23.58;;;10.50;;
56363;SDS011;42261;52.094;4.326;2022-12-18T09:07:26;19.73;;;8.20;;
56363;SDS011;42261;52.094;4.326;2022-12-18T09:10:10;19.17;;;8.18;;
56363;SDS011;42261;52.094;4.326;2022-12-18T09:12:54;13.63;;;7.88;;
56363;SDS011;42261;52.094;4.326;2022-12-18T09:15:40;21.27;;;9.30;;
56363;SDS011;42261;52.094;4.326;2022-12-18T09:18:32;18.75;;;8.45;;
56363;SDS011;42261;52.094;4.326;2022-12-18T09:21:18;19.80;;;8.40;;
56363;SDS011;42261;52.094;4.326;2022-12-18T09:24:04;19.85;;;9.15;;
56363;SDS011;42261;52.094;4.326;2022-12-18T09:26:52;22.25;;;10.13;;
56363;SDS011;42261;52.094;4.326;2022-12-18T09:29:38;21.45;;;9.18;;
56363;SDS011;42261;52.094;4.326;2022-12-18T09:32:21;20.42;;;8.55;;
56363;SDS011;42261;52.094;4.326;2022-12-18T09:35:06;22.52;;;10.13;;
56363;SDS011;42261;52.094;4.326;2022-12-18T09:37:50;16.88;;;7.68;;
56363;SDS011;42261;52.094;4.326;2022-12-18T09:40:35;23.95;;;8.80;;
56363;SDS011;42261;52.094;4.326;2022-12-18T09:43:33;23.20;;;9.80;;
56363;SDS011;42261;52.094;4.326;2022-12-18T09:49:11;21.02;;;9.27;;
56363;SDS011;42261;52.094;4.326;2022-12-18T09:55:27;18.42;;;7.78;;
56363;SDS011;42261;52.094;4.326;2022-12-18T10:01:28;16.70;;;8.00;;
56363;SDS011;42261;52.094;4.326;2022-12-18T10:04:13;19.75;;;7.40;;
56363;SDS011;42261;52.094;4.326;2022-12-18T10:07:19;18.60;;;9.13;;
56363;SDS011;42261;52.094;4.326;2022-12-18T10:10:06;19.23;;;8.18;;
56363;SDS011;42261;52.094;4.326;2022-12-18T10:12:57;23.80;;;10.40;;
56363;SDS011;42261;52.094;4.326;2022-12-18T10:15:54;14.73;;;8.48;;
56363;SDS011;42261;52.094;4.326;2022-12-18T10:21:46;17.23;;;9.25;;
56363;SDS011;42261;52.094;4.326;2022-12-18T10:25:13;18.48;;;8.80;;
56363;SDS011;42261;52.094;4.326;2022-12-18T10:28:15;16.88;;;7.90;;
56363;SDS011;42261;52.094;4.326;2022-12-18T10:31:00;17.08;;;8.57;;
56363;SDS011;42261;52.094;4.326;2022-12-18T10:33:45;16.80;;;8.07;;
56363;SDS011;42261;52.094;4.326;2022-12-18T10:36:29;18.35;;;8.05;;
56363;SDS011;42261;52.094;4.326;2022-12-18T10:39:15;16.77;;;10.02;;
56363;SDS011;42261;52.094;4.326;2022-12-18T10:42:14;17.75;;;8.20;;
56363;SDS011;42261;52.094;4.326;2022-12-18T10:45:09;18.35;;;9.05;;
56363;SDS011;42261;52.094;4.326;2022-12-18T10:47:55;15.50;;;7.75;;
56363;SDS011;42261;52.094;4.326;2022-12-18T10:50:40;17.45;;;9.65;;
56363;SDS011;42261;52.094;4.326;2022-12-18T10:53:31;23.38;;;8.98;;
56363;SDS011;42261;52.094;4.326;2022-12-18T10:56:19;19.17;;;8.55;;
56363;SDS011;42261;52.094;4.326;2022-12-18T10:59:05;15.88;;;7.45;;
56363;SDS011;42261;52.094;4.326;2022-12-18T11:01:53;16.65;;;7.45;;
56363;SDS011;42261;52.094;4.326;2022-12-18T11:04:51;13.57;;;7.35;;
56363;SDS011;42261;52.094;4.326;2022-12-18T11:07:48;20.25;;;7.10;;
56363;SDS011;42261;52.094;4.326;2022-12-18T11:10:35;19.45;;;8.77;;
56363;SDS011;42261;52.094;4.326;2022-12-18T11:13:21;18.33;;;8.45;;
56363;SDS011;42261;52.094;4.326;2022-12-18T11:16:06;17.08;;;7.65;;
56363;SDS011;42261;52.094;4.326;2022-12-18T11:18:53;20.38;;;8.57;;
56363;SDS011;42261;52.094;4.326;2022-12-18T11:21:40;17.83;;;8.20;;
56363;SDS011;42261;52.094;4.326;2022-12-18T11:24:33;18.35;;;8.77;;
56363;SDS011;42261;52.094;4.326;2022-12-18T11:27:18;19.85;;;8.38;;
56363;SDS011;42261;52.094;4.326;2022-12-18T11:30:23;17.90;;;8.48;;
56363;SDS011;42261;52.094;4.326;2022-12-18T11:33:23;17.30;;;7.80;;
56363;SDS011;42261;52.094;4.326;2022-12-18T11:36:07;13.40;;;6.68;;
56363;SDS011;42261;52.094;4.326;2022-12-18T11:38:53;14.80;;;7.85;;
56363;SDS011;42261;52.094;4.326;2022-12-18T11:41:56;16.67;;;7.88;;
56363;SDS011;42261;52.094;4.326;2022-12-18T11:50:58;18.10;;;7.57;;
56363;SDS011;42261;52.094;4.326;2022-12-18T11:53:43;18.05;;;7.93;;
56363;SDS011;42261;52.094;4.326;2022-12-18T11:56:39;17.95;;;7.60;;
56363;SDS011;42261;52.094;4.326;2022-12-18T11:59:33;16.02;;;6.80;;
56363;SDS011;42261;52.094;4.326;2022-12-18T12:08:30;15.05;;;7.88;;
56363;SDS011;42261;52.094;4.326;2022-12-18T12:11:21;12.82;;;6.47;;
56363;SDS011;42261;52.094;4.326;2022-12-18T12:17:36;18.33;;;8.25;;
56363;SDS011;42261;52.094;4.326;2022-12-18T12:23:31;17.73;;;8.65;;
56363;SDS011;42261;52.094;4.326;2022-12-18T12:33:11;17.30;;;7.88;;
56363;SDS011;42261;52.094;4.326;2022-12-18T12:36:05;16.15;;;7.22;;
56363;SDS011;42261;52.094;4.326;2022-12-18T12:38:59;17.92;;;8.80;;
56363;SDS011;42261;52.094;4.326;2022-12-18T12:41:47;17.00;;;8.25;;
56363;SDS011;42261;52.094;4.326;2022-12-18T12:47:41;13.88;;;7.43;;
56363;SDS011;42261;52.094;4.326;2022-12-18T12:50:26;14.10;;;8.23;;
56363;SDS011;42261;52.094;4.326;2022-12-18T12:53:16;15.00;;;8.15;;
56363;SDS011;42261;52.094;4.326;2022-12-18T12:56:06;20.35;;;8.25;;
56363;SDS011;42261;52.094;4.326;2022-12-18T13:02:02;19.23;;;9.05;;
56363;SDS011;42261;52.094;4.326;2022-12-18T13:05:06;14.38;;;8.02;;
56363;SDS011;42261;52.094;4.326;2022-12-18T13:08:09;15.48;;;7.85;;
56363;SDS011;42261;52.094;4.326;2022-12-18T13:10:54;16.92;;;7.70;;
56363;SDS011;42261;52.094;4.326;2022-12-18T13:13:59;16.83;;;8.02;;
56363;SDS011;42261;52.094;4.326;2022-12-18T13:16:43;18.20;;;8.52;;
56363;SDS011;42261;52.094;4.326;2022-12-18T13:19:27;16.38;;;8.05;;
56363;SDS011;42261;52.094;4.326;2022-12-18T13:22:22;18.63;;;8.82;;
56363;SDS011;42261;52.094;4.326;2022-12-18T13:28:15;20.77;;;9.10;;
56363;SDS011;42261;52.094;4.326;2022-12-18T13:31:02;19.63;;;9.15;;
56363;SDS011;42261;52.094;4.326;2022-12-18T13:33:47;16.20;;;8.55;;
56363;SDS011;42261;52.094;4.326;2022-12-18T13:36:32;19.73;;;8.65;;
56363;SDS011;42261;52.094;4.326;2022-12-18T13:44:49;18.50;;;9.55;;
56363;SDS011;42261;52.094;4.326;2022-12-18T13:47:34;18.08;;;8.32;;
56363;SDS011;42261;52.094;4.326;2022-12-18T13:50:25;17.52;;;8.95;;
56363;SDS011;42261;52.094;4.326;2022-12-18T13:53:46;15.65;;;7.85;;
56363;SDS011;42261;52.094;4.326;2022-12-18T13:56:33;18.63;;;8.95;;
56363;SDS011;42261;52.094;4.326;2022-12-18T13:59:26;20.30;;;9.02;;
56363;SDS011;42261;52.094;4.326;2022-12-18T14:02:24;23.45;;;8.98;;
56363;SDS011;42261;52.094;4.326;2022-12-18T14:05:21;18.95;;;8.95;;
56363;SDS011;42261;52.094;4.326;2022-12-18T14:08:13;16.98;;;8.50;;
56363;SDS011;42261;52.094;4.326;2022-12-18T14:10:59;19.10;;;9.63;;
56363;SDS011;42261;52.094;4.326;2022-12-18T14:13:45;16.20;;;8.48;;
56363;SDS011;42261;52.094;4.326;2022-12-18T14:16:30;19.08;;;9.77;;
56363;SDS011;42261;52.094;4.326;2022-12-18T14:19:15;17.90;;;9.25;;
56363;SDS011;42261;52.094;4.326;2022-12-18T14:22:01;26.48;;;13.60;;
56363;SDS011;42261;52.094;4.326;2022-12-18T14:24:46;23.38;;;11.65;;
56363;SDS011;42261;52.094;4.326;2022-12-18T14:27:36;17.30;;;9.15;;
56363;SDS011;42261;52.094;4.326;2022-12-18T14:33:10;18.77;;;9.52;;
56363;SDS011;42261;52.094;4.326;2022-12-18T14:38:43;19.80;;;10.02;;
56363;SDS011;42261;52.094;4.326;2022-12-18T14:41:32;23.20;;;10.88;;
56363;SDS011;42261;52.094;4.326;2022-12-18T14:44:17;25.10;;;10.48;;
56363;SDS011;42261;52.094;4.326;2022-12-18T14:47:01;23.38;;;10.82;;
56363;SDS011;42261;52.094;4.326;2022-12-18T14:49:45;18.08;;;8.45;;
56363;SDS011;42261;52.094;4.326;2022-12-18T14:52:29;22.30;;;9.27;;
56363;SDS011;42261;52.094;4.326;2022-12-18T14:55:19;19.42;;;10.32;;
56363;SDS011;42261;52.094;4.326;2022-12-18T14:58:05;18.40;;;10.55;;
56363;SDS011;42261;52.094;4.326;2022-12-18T15:00:49;22.75;;;9.55;;
56363;SDS011;42261;52.094;4.326;2022-12-18T15:03:33;18.05;;;8.98;;
56363;SDS011;42261;52.094;4.326;2022-12-18T15:06:23;21.05;;;9.00;;
56363;SDS011;42261;52.094;4.326;2022-12-18T15:09:23;21.73;;;9.35;;
56363;SDS011;42261;52.094;4.326;2022-12-18T15:18:18;19.88;;;9.65;;
56363;SDS011;42261;52.094;4.326;2022-12-18T15:21:09;19.15;;;9.52;;
56363;SDS011;42261;52.094;4.326;2022-12-18T15:23:54;20.50;;;9.60;;
56363;SDS011;42261;52.094;4.326;2022-12-18T15:26:39;20.38;;;9.23;;
56363;SDS011;42261;52.094;4.326;2022-12-18T15:29:23;15.82;;;8.68;;
56363;SDS011;42261;52.094;4.326;2022-12-18T15:32:27;18.08;;;8.90;;
56363;SDS011;42261;52.094;4.326;2022-12-18T15:35:16;19.58;;;8.82;;
56363;SDS011;42261;52.094;4.326;2022-12-18T15:38:06;19.88;;;9.18;;
56363;SDS011;42261;52.094;4.326;2022-12-18T15:40:50;18.15;;;9.88;;
56363;SDS011;42261;52.094;4.326;2022-12-18T15:43:34;19.63;;;11.05;;
56363;SDS011;42261;52.094;4.326;2022-12-18T15:46:22;18.83;;;9.25;;
56363;SDS011;42261;52.094;4.326;2022-12-18T15:49:07;17.45;;;9.55;;
56363;SDS011;42261;52.094;4.326;2022-12-18T15:51:52;17.10;;;8.88;;
56363;SDS011;42261;52.094;4.326;2022-12-18T15:54:38;16.67;;;8.43;;
56363;SDS011;42261;52.094;4.326;2022-12-18T15:58:01;14.75;;;7.95;;
56363;SDS011;42261;52.094;4.326;2022-12-18T16:00:46;18.00;;;8.65;;
56363;SDS011;42261;52.094;4.326;2022-12-18T16:03:30;16.98;;;8.93;;
56363;SDS011;42261;52.094;4.326;2022-12-18T16:06:15;33.30;;;15.35;;
56363;SDS011;42261;52.094;4.326;2022-12-18T16:08:59;17.92;;;8.73;;
56363;SDS011;42261;52.094;4.326;2022-12-18T16:11:43;21.02;;;8.52;;
56363;SDS011;42261;52.094;4.326;2022-12-18T16:14:29;16.45;;;8.75;;
56363;SDS011;42261;52.094;4.326;2022-12-18T16:17:14;21.40;;;9.02;;
56363;SDS011;42261;52.094;4.326;2022-12-18T16:19:58;17.55;;;8.85;;
56363;SDS011;42261;52.094;4.326;2022-12-18T16:22:43;16.85;;;8.25;;
56363;SDS011;42261;52.094;4.326;2022-12-18T16:25:31;19.85;;;8.48;;
56363;SDS011;42261;52.094;4.326;2022-12-18T16:28:15;20.17;;;8.70;;
56363;SDS011;42261;52.094;4.326;2022-12-18T16:31:00;19.45;;;9.15;;
56363;SDS011;42261;52.094;4.326;2022-12-18T16:33:44;13.98;;;7.45;;
56363;SDS011;42261;52.094;4.326;2022-12-18T16:36:28;19.88;;;9.20;;
56363;SDS011;42261;52.094;4.326;2022-12-18T16:39:13;20.17;;;9.10;;
56363;SDS011;42261;52.094;4.326;2022-12-18T16:41:57;17.70;;;9.15;;
56363;SDS011;42261;52.094;4.326;2022-12-18T16:44:42;20.60;;;10.07;;
56363;SDS011;42261;52.094;4.326;2022-12-18T16:47:26;19.77;;;9.07;;
56363;SDS011;42261;52.094;4.326;2022-12-18T16:50:11;22.27;;;8.85;;
56363;SDS011;42261;52.094;4.326;2022-12-18T16:52:55;19.05;;;9.45;;
56363;SDS011;42261;52.094;4.326;2022-12-18T16:55:39;19.60;;;9.45;;
56363;SDS011;42261;52.094;4.326;2022-12-18T16:58:23;19.60;;;8.88;;
56363;SDS011;42261;52.094;4.326;2022-12-18T17:01:09;16.48;;;8.48;;
56363;SDS011;42261;52.094;4.326;2022-12-18T17:03:58;21.10;;;9.82;;
56363;SDS011;42261;52.094;4.326;2022-12-18T17:06:44;17.20;;;8.68;;
56363;SDS011;42261;52.094;4.326;2022-12-18T17:09:34;22.17;;;9.88;;
56363;SDS011;42261;52.094;4.326;2022-12-18T17:12:22;21.50;;;9.38;;
56363;SDS011;42261;52.094;4.326;2022-12-18T17:15:06;18.83;;;8.80;;
56363;SDS011;42261;52.094;4.326;2022-12-18T17:17:51;18.17;;;8.82;;
56363;SDS011;42261;52.094;4.326;2022-12-18T17:20:36;20.17;;;9.77;;
56363;SDS011;42261;52.094;4.326;2022-12-18T17:23:20;19.08;;;9.57;;
56363;SDS011;42261;52.094;4.326;2022-12-18T17:26:05;20.55;;;9.90;;
56363;SDS011;42261;52.094;4.326;2022-12-18T17:28:55;20.98;;;9.00;;
56363;SDS011;42261;52.094;4.326;2022-12-18T17:31:40;19.95;;;9.70;;
56363;SDS011;42261;52.094;4.326;2022-12-18T17:34:24;19.00;;;9.55;;
56363;SDS011;42261;52.094;4.326;2022-12-18T17:37:10;20.63;;;9.98;;
56363;SDS011;42261;52.094;4.326;2022-12-18T17:39:54;19.63;;;9.88;;
56363;SDS011;42261;52.094;4.326;2022-12-18T17:42:38;23.88;;;9.32;;
56363;SDS011;42261;52.094;4.326;2022-12-18T17:45:23;18.77;;;9.27;;
56363;SDS011;42261;52.094;4.326;2022-12-18T17:48:07;20.60;;;9.85;;
56363;SDS011;42261;52.094;4.326;2022-12-18T17:50:52;24.80;;;9.77;;
56363;SDS011;42261;52.094;4.326;2022-12-18T17:53:37;22.08;;;10.20;;